This is the latest recevied weather packets stored in our database for station/object G4GVZ-1. If no packets are shown the sender has not sent any weather packets the latest 10 day(s).
| Time | Temp. | Humidity | Pressure | Rain* | Wind** | Luminosity | Snow |
|---|---|---|---|---|---|---|---|
| 1777473951 | 18.33° C | 34% | 1022 hPa | 0 mm | - | - | - |
| 1777473051 | 18.89° C | 35% | 1022 hPa | 0 mm | - | - | - |
| 1777472151 | 18.33° C | 36% | 1022.1 hPa | 0 mm | - | - | - |
| 1777471250 | 18.89° C | 36% | 1022 hPa | 0 mm | - | - | - |
| 1777470352 | 18.89° C | 36% | 1022.2 hPa | 0 mm | - | - | - |
| 1777469452 | 18.33° C | 36% | 1022.3 hPa | 0 mm | - | - | - |
| 1777468552 | 18.89° C | 36% | 1022.2 hPa | 0 mm | - | - | - |
| 1777467651 | 18.33° C | 35% | 1022.5 hPa | 0 mm | - | - | - |
| 1777466751 | 18.33° C | 34% | 1022.4 hPa | 0 mm | - | - | - |
| 1777465851 | 18.33° C | 35% | 1022.7 hPa | 0 mm | - | - | - |
| 1777464951 | 17.78° C | 39% | 1022.7 hPa | 0 mm | - | - | - |
| 1777464051 | 17.22° C | 41% | 1022.9 hPa | 0 mm | - | - | - |
| 1777463386 | 10° C | 77% | 1024.2 hPa | 0 mm | - | - | - |
| 1777463384 | 7.78° C | 82% | 1024.2 hPa | 0 mm | - | - | - |
| 1777463151 | 17.22° C | 42% | 1022.9 hPa | 0 mm | - | - | - |
| 1777462251 | 16.67° C | 45% | 1023.2 hPa | 0 mm | - | - | - |
| 1777461351 | 16.67° C | 46% | 1023.3 hPa | 0 mm | - | - | - |
| 1777460451 | 16.67° C | 47% | 1023.3 hPa | 0 mm | - | - | - |
| 1777459549 | 16.11° C | 48% | 1023.2 hPa | 0 mm | - | - | - |
| 1777458648 | 15.56° C | 48% | 1023 hPa | 0 mm | - | - | - |
| 1777457748 | 15.56° C | 48% | 1023.3 hPa | 0 mm | - | - | - |
| 1777456848 | 15.56° C | 48% | 1023.4 hPa | 0 mm | - | - | - |
| 1777455948 | 15.56° C | 48% | 1023.2 hPa | 0 mm | - | - | - |
| 1777455048 | 15° C | 49% | 1023.4 hPa | 0 mm | - | - | - |
| 1777454147 | 14.44° C | 51% | 1023.6 hPa | 0 mm | - | - | - |
* Rain latest hour (hover to see other rain measurements)
** Current wind speed in m/s (hover to see current wind gust speed)